-1 Query Result

LUMCON's Bayouside Classroom: Query Results


Try Another Query    Instructions for saving Query Results    View Delimited Text File for this Query   
UserNameUserIDGroupNumberLocationLocationIDSampleDateSampleTimeBottomTempTopTempBottomSalinityTopSalinityBottomDOTopDOBottompHToppHBottomTurbidityTopTurbidityDepth
rbabin 126 NA HoumaNavigationCanal2 48 1/1/1900 09:58 NA 20 NA 15 NA NA NA  36.3 NA 
Lumcon NA HoumaNavigationCanal2 48 1/1/1900 10:10 NA 32 NA 13 NA 5.2 NA 8.0  12.6 2100 
gtheriot 96 HoumaNavigationCanal2 48 1/24/2009 09:49 NA 15 NA 11 NA 8.8 NA 8.3 NA 21.3 NA 
jdupuis 109 NA HoumaNavigationCanal2 48 1/24/2009 09:50 NA 15.0 NA 13 NA 8.8 NA 8.3 NA 19.8 NA 
acapello 105 NA HoumaNavigationCanal2 48 1/24/2009 09:51 NA 15.0 NA 10 NA 9.1 NA 8.1 NA 15.8 182.88 
jrexford 116 NA HoumaNavigationCanal2 48 1/24/2009 09:47 NA 17 NA 10 NA 9.1 NA 8.5 NA 16.6 NA 
mbaustian 103 NA HoumaNavigationCanal2 48 1/24/2009 9:50 NA 15 NA 11 NA 8.4 NA 8.2 NA 10.6 182.88 
knichols 104 NA HoumaNavigationCanal2 48 1/24/2009 09:50 NA 15.0 NA 9.9 NA 9.0 NA 8.3 NA 21.2 182.88 
acapello 105 NA HoumaNavigationCanal2 48 10/24/2009 09:50 NA 23 NA 15 NA 5.6 NA 8.3  34.4 NA 
Lumcon NA HoumaNavigationCanal2 48 10/24/2009 09:45 NA 22 NA 15 NA 6.3 NA NA  26.3 NA 
paml 122 NA HoumaNavigationCanal2 48 10/24/2009 09:50 NA 21 NA 15 NA 6.5 NA 8.3  36.4 NA 
llebouef 129 HoumaNavigationCanal2 48 10/24/2009 09:50 NA 22 NA 12 NA 6.4 NA 8.5  31.3 NA 
Lumcon NA HoumaNavigationCanal2 48 10/24/2009 09:45 NA 22 NA 14 NA 6.3 NA 8.3  31.8 NA 
snichol 127 HoumaNavigationCanal2 48 10/24/2009 09:50 NA 23 NA 15 NA NA NA  24.8 NA 
Lumcon 10 HoumaNavigationCanal2 48 7/22/2010 10;11 NA 30 NA 12 NA 5.2 NA 8.1  14 21 
Lumcon NA HoumaNavigationCanal2 48 7/22/2010 10:10 NA 30 NA NA 4.6 NA 6.7  14.8 640.08 
Lumcon NA HoumaNavigationCanal2 48 7/22/2010 10:22 NA 32 NA 9.5 NA 4.4 NA 8.2  15.8 640.08 
Lumcon HoumaNavigationCanal2 48 7/22/2010 10:12 NA 32 NA 14 NA 5.2 NA 8.2  13.8 630 
Lumcon HoumaNavigationCanal2 48 10/8/2011 10:09 NA 25 NA 10 NA NA 8.2  17 NA 
Lumcon HoumaNavigationCanal2 48 10/8/2011 10:09 NA 25 NA 10 NA NA 8.2  17 NA 
Lumcon HoumaNavigationCanal2 48 10/8/2011 10:09 NA 25 NA 10 NA 5.1 NA 8.0  17.2 252.984 
Lumcon 06 HoumaNavigationCanal2 48 10/8/2011 10:10 NA 25 NA 19 NA 5.5 NA  19.4 253 
Lumcon NA HoumaNavigationCanal2 48 10/8/2011 10:10 NA 25.1 NA 10 NA 4.2 NA  18.2 252.98 
Lumcon NA HoumaNavigationCanal2 48 10/8/2011 10:10 NA 26.0 NA 10 NA 5.7 NA 8.1  19 253 
Lumcon HoumaNavigationCanal2 48 5/31/2013 0944 NA 29 NA 10 NA 4.8 NA 7.8  29.6 411.5 
Lumcon 3NA HoumaNavigationCanal2 48 5/31/2013 0944 NA 30 NA 11 NA 5.3 NA 7.8  26.5 411.5